sensor_id;sensor_type;location;lat;lon;timestamp;temperature;humidity
59923;DHT22;45778;51.142;3.732;2022-11-20T00:02:25;5.20;99.90
59923;DHT22;45778;51.142;3.732;2022-11-20T00:04:50;5.20;99.90
59923;DHT22;45778;51.142;3.732;2022-11-20T00:07:16;5.20;99.90
59923;DHT22;45778;51.142;3.732;2022-11-20T00:09:42;5.30;99.90
59923;DHT22;45778;51.142;3.732;2022-11-20T00:12:07;5.40;99.90
59923;DHT22;45778;51.142;3.732;2022-11-20T00:14:33;5.40;99.90
59923;DHT22;45778;51.142;3.732;2022-11-20T00:16:59;5.40;99.90
59923;DHT22;45778;51.142;3.732;2022-11-20T00:19:24;5.40;99.90
59923;DHT22;45778;51.142;3.732;2022-11-20T00:21:51;5.50;99.90
59923;DHT22;45778;51.142;3.732;2022-11-20T00:24:19;5.50;99.90
59923;DHT22;45778;51.142;3.732;2022-11-20T00:26:44;5.40;99.90
59923;DHT22;45778;51.142;3.732;2022-11-20T00:29:10;5.40;99.90
59923;DHT22;45778;51.142;3.732;2022-11-20T00:31:36;5.40;99.90
59923;DHT22;45778;51.142;3.732;2022-11-20T00:34:02;5.30;99.90
59923;DHT22;45778;51.142;3.732;2022-11-20T00:36:31;5.20;99.90
59923;DHT22;45778;51.142;3.732;2022-11-20T00:38:58;5.00;99.90
59923;DHT22;45778;51.142;3.732;2022-11-20T00:41:24;4.90;99.90
59923;DHT22;45778;51.142;3.732;2022-11-20T00:43:52;4.90;99.90
59923;DHT22;45778;51.142;3.732;2022-11-20T00:46:20;4.80;99.90
59923;DHT22;45778;51.142;3.732;2022-11-20T00:48:46;4.70;99.90
59923;DHT22;45778;51.142;3.732;2022-11-20T00:51:17;4.80;99.90
59923;DHT22;45778;51.142;3.732;2022-11-20T00:53:44;4.80;99.90
59923;DHT22;45778;51.142;3.732;2022-11-20T00:56:12;4.80;99.90
59923;DHT22;45778;51.142;3.732;2022-11-20T00:58:40;4.80;99.90
59923;DHT22;45778;51.142;3.732;2022-11-20T01:01:25;4.80;99.90
59923;DHT22;45778;51.142;3.732;2022-11-20T01:03:53;4.70;99.90
59923;DHT22;45778;51.142;3.732;2022-11-20T01:06:21;4.80;99.90
59923;DHT22;45778;51.142;3.732;2022-11-20T01:08:48;4.90;99.90
59923;DHT22;45778;51.142;3.732;2022-11-20T01:11:19;4.90;99.90
59923;DHT22;45778;51.142;3.732;2022-11-20T01:13:46;4.90;99.90
59923;DHT22;45778;51.142;3.732;2022-11-20T01:16:20;4.80;99.90
59923;DHT22;45778;51.142;3.732;2022-11-20T01:18:49;4.80;99.90
59923;DHT22;45778;51.142;3.732;2022-11-20T01:21:23;4.80;99.90
59923;DHT22;45778;51.142;3.732;2022-11-20T01:23:51;4.80;99.90
59923;DHT22;45778;51.142;3.732;2022-11-20T01:26:22;4.90;99.90
59923;DHT22;45778;51.142;3.732;2022-11-20T01:28:48;5.00;99.90
59923;DHT22;45778;51.142;3.732;2022-11-20T01:31:23;5.00;99.90
59923;DHT22;45778;51.142;3.732;2022-11-20T01:33:51;5.00;99.90
59923;DHT22;45778;51.142;3.732;2022-11-20T01:36:18;4.90;99.90
59923;DHT22;45778;51.142;3.732;2022-11-20T01:38:44;5.00;99.90
59923;DHT22;45778;51.142;3.732;2022-11-20T01:41:12;5.00;99.90
59923;DHT22;45778;51.142;3.732;2022-11-20T01:43:58;5.00;99.90
59923;DHT22;45778;51.142;3.732;2022-11-20T01:46:24;4.90;99.90
59923;DHT22;45778;51.142;3.732;2022-11-20T01:48:57;5.00;99.90
59923;DHT22;45778;51.142;3.732;2022-11-20T01:51:44;4.90;99.90
59923;DHT22;45778;51.142;3.732;2022-11-20T01:54:21;4.80;99.90
59923;DHT22;45778;51.142;3.732;2022-11-20T01:56:51;4.90;99.90
59923;DHT22;45778;51.142;3.732;2022-11-20T01:59:19;5.00;99.90
59923;DHT22;45778;51.142;3.732;2022-11-20T02:01:46;4.90;99.90
59923;DHT22;45778;51.142;3.732;2022-11-20T02:04:13;4.90;99.90
59923;DHT22;45778;51.142;3.732;2022-11-20T02:06:44;4.80;99.90
59923;DHT22;45778;51.142;3.732;2022-11-20T02:09:11;4.80;99.90
59923;DHT22;45778;51.142;3.732;2022-11-20T02:11:37;4.70;99.90
59923;DHT22;45778;51.142;3.732;2022-11-20T02:14:03;4.70;99.90
59923;DHT22;45778;51.142;3.732;2022-11-20T02:16:33;4.70;99.90
59923;DHT22;45778;51.142;3.732;2022-11-20T02:19:02;4.70;99.90
59923;DHT22;45778;51.142;3.732;2022-11-20T02:21:49;4.60;99.90
59923;DHT22;45778;51.142;3.732;2022-11-20T02:24:22;4.70;99.90
59923;DHT22;45778;51.142;3.732;2022-11-20T02:26:57;4.80;99.90
59923;DHT22;45778;51.142;3.732;2022-11-20T02:29:32;4.80;99.90
59923;DHT22;45778;51.142;3.732;2022-11-20T02:32:00;4.80;99.90
59923;DHT22;45778;51.142;3.732;2022-11-20T02:34:27;4.70;99.90
59923;DHT22;45778;51.142;3.732;2022-11-20T02:36:53;4.60;99.90
59923;DHT22;45778;51.142;3.732;2022-11-20T02:39:19;4.70;99.90
59923;DHT22;45778;51.142;3.732;2022-11-20T02:41:46;4.70;99.90
59923;DHT22;45778;51.142;3.732;2022-11-20T02:44:12;4.60;99.90
59923;DHT22;45778;51.142;3.732;2022-11-20T02:46:37;4.60;99.90
59923;DHT22;45778;51.142;3.732;2022-11-20T02:49:04;4.70;99.90
59923;DHT22;45778;51.142;3.732;2022-11-20T02:51:30;4.70;99.90
59923;DHT22;45778;51.142;3.732;2022-11-20T02:53:56;4.70;99.90
59923;DHT22;45778;51.142;3.732;2022-11-20T02:56:22;4.70;99.90
59923;DHT22;45778;51.142;3.732;2022-11-20T02:58:48;4.90;99.90
59923;DHT22;45778;51.142;3.732;2022-11-20T03:01:13;4.90;99.90
59923;DHT22;45778;51.142;3.732;2022-11-20T03:03:39;4.80;99.90
59923;DHT22;45778;51.142;3.732;2022-11-20T03:06:05;4.80;99.90
59923;DHT22;45778;51.142;3.732;2022-11-20T03:08:31;4.80;99.90
59923;DHT22;45778;51.142;3.732;2022-11-20T03:11:02;4.70;99.90
59923;DHT22;45778;51.142;3.732;2022-11-20T03:13:28;4.70;99.90
59923;DHT22;45778;51.142;3.732;2022-11-20T03:15:54;4.80;99.90
59923;DHT22;45778;51.142;3.732;2022-11-20T03:18:20;4.70;99.90
59923;DHT22;45778;51.142;3.732;2022-11-20T03:20:45;4.60;99.90
59923;DHT22;45778;51.142;3.732;2022-11-20T03:23:11;4.40;99.90
59923;DHT22;45778;51.142;3.732;2022-11-20T03:25:37;4.40;99.90
59923;DHT22;45778;51.142;3.732;2022-11-20T03:28:02;4.40;99.90
59923;DHT22;45778;51.142;3.732;2022-11-20T03:30:28;4.50;99.90
59923;DHT22;45778;51.142;3.732;2022-11-20T03:32:54;4.50;99.90
59923;DHT22;45778;51.142;3.732;2022-11-20T03:35:20;4.50;99.90
59923;DHT22;45778;51.142;3.732;2022-11-20T03:37:46;4.50;99.90
59923;DHT22;45778;51.142;3.732;2022-11-20T03:40:12;4.50;99.90
59923;DHT22;45778;51.142;3.732;2022-11-20T03:42:37;4.50;99.90
59923;DHT22;45778;51.142;3.732;2022-11-20T03:45:14;4.60;99.90
59923;DHT22;45778;51.142;3.732;2022-11-20T03:47:39;4.60;99.90
59923;DHT22;45778;51.142;3.732;2022-11-20T03:50:05;4.60;99.90
59923;DHT22;45778;51.142;3.732;2022-11-20T03:52:31;4.50;99.90
59923;DHT22;45778;51.142;3.732;2022-11-20T03:54:57;4.50;99.90
59923;DHT22;45778;51.142;3.732;2022-11-20T03:57:23;4.40;99.90
59923;DHT22;45778;51.142;3.732;2022-11-20T03:59:48;4.40;99.90
59923;DHT22;45778;51.142;3.732;2022-11-20T04:02:14;4.50;99.90
59923;DHT22;45778;51.142;3.732;2022-11-20T04:04:40;4.50;99.90
59923;DHT22;45778;51.142;3.732;2022-11-20T04:07:05;4.70;99.90
59923;DHT22;45778;51.142;3.732;2022-11-20T04:09:31;4.70;99.90
59923;DHT22;45778;51.142;3.732;2022-11-20T04:11:57;4.90;99.90
59923;DHT22;45778;51.142;3.732;2022-11-20T04:14:22;4.90;99.90
59923;DHT22;45778;51.142;3.732;2022-11-20T04:16:48;4.90;99.90
59923;DHT22;45778;51.142;3.732;2022-11-20T04:19:15;4.90;99.90
59923;DHT22;45778;51.142;3.732;2022-11-20T04:21:42;4.90;99.90
59923;DHT22;45778;51.142;3.732;2022-11-20T04:24:08;5.00;99.90
59923;DHT22;45778;51.142;3.732;2022-11-20T04:26:36;5.00;99.90
59923;DHT22;45778;51.142;3.732;2022-11-20T04:29:02;4.90;99.90
59923;DHT22;45778;51.142;3.732;2022-11-20T04:31:31;4.90;99.90
59923;DHT22;45778;51.142;3.732;2022-11-20T04:34:01;4.90;99.90
59923;DHT22;45778;51.142;3.732;2022-11-20T04:36:27;5.00;99.90
59923;DHT22;45778;51.142;3.732;2022-11-20T04:38:55;4.90;99.90
59923;DHT22;45778;51.142;3.732;2022-11-20T04:41:23;5.00;99.90
59923;DHT22;45778;51.142;3.732;2022-11-20T04:43:50;5.10;99.90
59923;DHT22;45778;51.142;3.732;2022-11-20T04:46:17;5.20;99.90
59923;DHT22;45778;51.142;3.732;2022-11-20T04:48:44;5.10;99.90
59923;DHT22;45778;51.142;3.732;2022-11-20T04:51:09;5.00;99.90
59923;DHT22;45778;51.142;3.732;2022-11-20T04:53:35;4.90;99.90
59923;DHT22;45778;51.142;3.732;2022-11-20T04:56:02;4.70;99.90
59923;DHT22;45778;51.142;3.732;2022-11-20T04:58:28;4.70;99.90
59923;DHT22;45778;51.142;3.732;2022-11-20T05:01:01;4.70;99.90
59923;DHT22;45778;51.142;3.732;2022-11-20T05:03:27;4.70;99.90
59923;DHT22;45778;51.142;3.732;2022-11-20T05:05:53;4.50;99.90
59923;DHT22;45778;51.142;3.732;2022-11-20T05:08:19;4.40;99.90
59923;DHT22;45778;51.142;3.732;2022-11-20T05:10:44;4.40;99.90
59923;DHT22;45778;51.142;3.732;2022-11-20T05:13:10;4.20;99.90
59923;DHT22;45778;51.142;3.732;2022-11-20T05:15:35;4.30;99.90
59923;DHT22;45778;51.142;3.732;2022-11-20T05:18:01;4.30;99.90
59923;DHT22;45778;51.142;3.732;2022-11-20T05:20:27;4.30;99.90
59923;DHT22;45778;51.142;3.732;2022-11-20T05:22:56;4.30;99.90
59923;DHT22;45778;51.142;3.732;2022-11-20T05:25:22;4.40;99.90
59923;DHT22;45778;51.142;3.732;2022-11-20T05:27:48;4.40;99.90
59923;DHT22;45778;51.142;3.732;2022-11-20T05:30:14;4.50;99.90
59923;DHT22;45778;51.142;3.732;2022-11-20T05:32:40;4.60;99.90
59923;DHT22;45778;51.142;3.732;2022-11-20T05:35:06;4.60;99.90
59923;DHT22;45778;51.142;3.732;2022-11-20T05:37:31;4.70;99.90
59923;DHT22;45778;51.142;3.732;2022-11-20T05:39:57;4.80;99.90
59923;DHT22;45778;51.142;3.732;2022-11-20T05:42:23;4.80;99.90
59923;DHT22;45778;51.142;3.732;2022-11-20T05:45:03;4.80;99.90
59923;DHT22;45778;51.142;3.732;2022-11-20T05:47:32;4.90;99.90
59923;DHT22;45778;51.142;3.732;2022-11-20T05:49:58;4.90;99.90
59923;DHT22;45778;51.142;3.732;2022-11-20T05:52:24;4.70;99.90
59923;DHT22;45778;51.142;3.732;2022-11-20T05:54:49;4.70;99.90
59923;DHT22;45778;51.142;3.732;2022-11-20T05:57:15;4.60;99.90
59923;DHT22;45778;51.142;3.732;2022-11-20T05:59:41;4.60;99.90
59923;DHT22;45778;51.142;3.732;2022-11-20T06:02:07;4.70;99.90
59923;DHT22;45778;51.142;3.732;2022-11-20T06:04:33;4.70;99.90
59923;DHT22;45778;51.142;3.732;2022-11-20T06:06:58;4.70;99.90
59923;DHT22;45778;51.142;3.732;2022-11-20T06:09:24;4.60;99.90
59923;DHT22;45778;51.142;3.732;2022-11-20T06:11:50;4.60;99.90
59923;DHT22;45778;51.142;3.732;2022-11-20T06:14:15;4.60;99.90
59923;DHT22;45778;51.142;3.732;2022-11-20T06:16:41;4.60;99.90
59923;DHT22;45778;51.142;3.732;2022-11-20T06:19:07;4.80;99.90
59923;DHT22;45778;51.142;3.732;2022-11-20T06:21:32;4.90;99.90
59923;DHT22;45778;51.142;3.732;2022-11-20T06:23:58;4.80;99.90
59923;DHT22;45778;51.142;3.732;2022-11-20T06:26:26;4.80;99.90
59923;DHT22;45778;51.142;3.732;2022-11-20T06:28:53;4.90;99.90
59923;DHT22;45778;51.142;3.732;2022-11-20T06:31:22;5.00;99.90
59923;DHT22;45778;51.142;3.732;2022-11-20T06:33:48;5.10;99.90
59923;DHT22;45778;51.142;3.732;2022-11-20T06:36:16;5.20;99.90
59923;DHT22;45778;51.142;3.732;2022-11-20T06:38:42;5.20;99.90
59923;DHT22;45778;51.142;3.732;2022-11-20T06:41:14;5.20;99.90
59923;DHT22;45778;51.142;3.732;2022-11-20T06:43:40;5.30;99.90
59923;DHT22;45778;51.142;3.732;2022-11-20T06:46:06;5.50;99.90
59923;DHT22;45778;51.142;3.732;2022-11-20T06:48:32;5.40;99.90
59923;DHT22;45778;51.142;3.732;2022-11-20T06:50:58;5.30;99.90
59923;DHT22;45778;51.142;3.732;2022-11-20T06:53:24;5.30;99.90
59923;DHT22;45778;51.142;3.732;2022-11-20T06:55:51;5.30;99.90
59923;DHT22;45778;51.142;3.732;2022-11-20T06:58:17;5.30;99.90
59923;DHT22;45778;51.142;3.732;2022-11-20T07:00:43;5.50;99.90
59923;DHT22;45778;51.142;3.732;2022-11-20T07:03:10;5.40;99.90
59923;DHT22;45778;51.142;3.732;2022-11-20T07:05:36;5.50;99.90
59923;DHT22;45778;51.142;3.732;2022-11-20T07:08:03;5.70;99.90
59923;DHT22;45778;51.142;3.732;2022-11-20T07:10:30;5.70;99.90
59923;DHT22;45778;51.142;3.732;2022-11-20T07:12:56;5.80;99.90
59923;DHT22;45778;51.142;3.732;2022-11-20T07:15:23;5.80;99.90
59923;DHT22;45778;51.142;3.732;2022-11-20T07:17:49;5.80;99.90
59923;DHT22;45778;51.142;3.732;2022-11-20T07:20:15;6.00;99.90
59923;DHT22;45778;51.142;3.732;2022-11-20T07:22:42;6.10;99.90
59923;DHT22;45778;51.142;3.732;2022-11-20T07:25:09;6.10;99.90
59923;DHT22;45778;51.142;3.732;2022-11-20T07:27:35;5.90;99.90
59923;DHT22;45778;51.142;3.732;2022-11-20T07:30:04;5.80;99.90
59923;DHT22;45778;51.142;3.732;2022-11-20T07:32:30;5.70;99.90
59923;DHT22;45778;51.142;3.732;2022-11-20T07:34:56;5.80;99.90
59923;DHT22;45778;51.142;3.732;2022-11-20T07:37:22;5.90;99.90
59923;DHT22;45778;51.142;3.732;2022-11-20T07:39:47;6.00;99.90
59923;DHT22;45778;51.142;3.732;2022-11-20T07:42:13;5.90;99.90
59923;DHT22;45778;51.142;3.732;2022-11-20T07:44:39;6.00;99.90
59923;DHT22;45778;51.142;3.732;2022-11-20T07:47:04;6.10;99.90
59923;DHT22;45778;51.142;3.732;2022-11-20T07:49:30;6.20;99.90
59923;DHT22;45778;51.142;3.732;2022-11-20T07:51:56;6.20;99.90
59923;DHT22;45778;51.142;3.732;2022-11-20T07:54:22;6.20;99.90
59923;DHT22;45778;51.142;3.732;2022-11-20T07:56:48;6.10;99.90
59923;DHT22;45778;51.142;3.732;2022-11-20T07:59:14;6.10;99.90
59923;DHT22;45778;51.142;3.732;2022-11-20T08:01:41;6.00;99.90
59923;DHT22;45778;51.142;3.732;2022-11-20T08:04:07;6.00;99.90
59923;DHT22;45778;51.142;3.732;2022-11-20T08:06:33;5.90;99.90
59923;DHT22;45778;51.142;3.732;2022-11-20T08:08:59;6.00;99.90
59923;DHT22;45778;51.142;3.732;2022-11-20T08:11:25;6.10;99.90
59923;DHT22;45778;51.142;3.732;2022-11-20T08:14:10;6.20;99.90
59923;DHT22;45778;51.142;3.732;2022-11-20T08:16:43;6.10;99.90
59923;DHT22;45778;51.142;3.732;2022-11-20T08:19:10;6.10;99.90
59923;DHT22;45778;51.142;3.732;2022-11-20T08:21:36;5.90;99.90
59923;DHT22;45778;51.142;3.732;2022-11-20T08:24:02;6.00;99.90
59923;DHT22;45778;51.142;3.732;2022-11-20T08:26:27;5.90;99.90
59923;DHT22;45778;51.142;3.732;2022-11-20T08:28:54;5.90;99.90
59923;DHT22;45778;51.142;3.732;2022-11-20T08:31:20;5.90;99.90
59923;DHT22;45778;51.142;3.732;2022-11-20T08:33:46;5.90;99.90
59923;DHT22;45778;51.142;3.732;2022-11-20T08:36:12;6.00;99.90
59923;DHT22;45778;51.142;3.732;2022-11-20T08:38:38;6.10;99.90
59923;DHT22;45778;51.142;3.732;2022-11-20T08:41:04;6.00;99.90
59923;DHT22;45778;51.142;3.732;2022-11-20T08:43:53;6.10;99.90
59923;DHT22;45778;51.142;3.732;2022-11-20T08:46:19;6.10;99.90
59923;DHT22;45778;51.142;3.732;2022-11-20T08:48:45;6.00;99.90
59923;DHT22;45778;51.142;3.732;2022-11-20T08:51:12;6.00;99.90
59923;DHT22;45778;51.142;3.732;2022-11-20T08:53:38;5.90;99.90
59923;DHT22;45778;51.142;3.732;2022-11-20T08:56:05;5.80;99.90
59923;DHT22;45778;51.142;3.732;2022-11-20T08:58:31;5.80;99.90
59923;DHT22;45778;51.142;3.732;2022-11-20T09:00:56;6.00;99.90
59923;DHT22;45778;51.142;3.732;2022-11-20T09:03:22;6.00;99.90
59923;DHT22;45778;51.142;3.732;2022-11-20T09:05:48;6.10;99.90
59923;DHT22;45778;51.142;3.732;2022-11-20T09:08:14;6.10;99.90
59923;DHT22;45778;51.142;3.732;2022-11-20T09:10:40;6.10;99.90
59923;DHT22;45778;51.142;3.732;2022-11-20T09:13:05;6.00;99.90
59923;DHT22;45778;51.142;3.732;2022-11-20T09:15:32;6.40;99.90
59923;DHT22;45778;51.142;3.732;2022-11-20T09:18:02;6.10;99.90
59923;DHT22;45778;51.142;3.732;2022-11-20T09:20:30;6.10;99.90
59923;DHT22;45778;51.142;3.732;2022-11-20T09:22:56;6.20;99.90
59923;DHT22;45778;51.142;3.732;2022-11-20T09:25:22;6.20;99.90
59923;DHT22;45778;51.142;3.732;2022-11-20T09:27:47;6.50;99.90
59923;DHT22;45778;51.142;3.732;2022-11-20T09:30:14;6.50;99.90
59923;DHT22;45778;51.142;3.732;2022-11-20T09:32:41;6.50;99.90
59923;DHT22;45778;51.142;3.732;2022-11-20T09:35:07;6.50;99.90
59923;DHT22;45778;51.142;3.732;2022-11-20T09:37:33;6.70;99.90
59923;DHT22;45778;51.142;3.732;2022-11-20T09:39:58;6.90;99.90
59923;DHT22;45778;51.142;3.732;2022-11-20T09:54:16;7.30;99.90
59923;DHT22;45778;51.142;3.732;2022-11-20T09:56:46;7.50;99.90
59923;DHT22;45778;51.142;3.732;2022-11-20T09:59:37;7.60;99.90
59923;DHT22;45778;51.142;3.732;2022-11-20T10:05:02;8.10;99.90
59923;DHT22;45778;51.142;3.732;2022-11-20T10:07:37;8.10;99.90
59923;DHT22;45778;51.142;3.732;2022-11-20T10:10:05;8.10;99.90
59923;DHT22;45778;51.142;3.732;2022-11-20T10:13:05;8.00;99.90
59923;DHT22;45778;51.142;3.732;2022-11-20T10:18:42;7.90;99.90
59923;DHT22;45778;51.142;3.732;2022-11-20T10:26:46;8.20;99.90
59923;DHT22;45778;51.142;3.732;2022-11-20T10:29:21;8.40;99.90
59923;DHT22;45778;51.142;3.732;2022-11-20T10:32:01;8.20;99.90
59923;DHT22;45778;51.142;3.732;2022-11-20T10:34:47;8.20;99.90
59923;DHT22;45778;51.142;3.732;2022-11-20T10:37:25;8.40;99.90
59923;DHT22;45778;51.142;3.732;2022-11-20T10:42:47;8.20;99.90
59923;DHT22;45778;51.142;3.732;2022-11-20T10:48:16;8.30;99.90
59923;DHT22;45778;51.142;3.732;2022-11-20T10:50:51;8.30;99.90
59923;DHT22;45778;51.142;3.732;2022-11-20T10:56:16;8.50;99.90
59923;DHT22;45778;51.142;3.732;2022-11-20T11:01:26;8.90;99.90
59923;DHT22;45778;51.142;3.732;2022-11-20T11:03:53;8.90;99.90
59923;DHT22;45778;51.142;3.732;2022-11-20T11:06:29;8.90;99.90
59923;DHT22;45778;51.142;3.732;2022-11-20T11:09:00;8.90;99.90
59923;DHT22;45778;51.142;3.732;2022-11-20T11:11:33;8.90;99.90
59923;DHT22;45778;51.142;3.732;2022-11-20T11:14:11;8.90;99.90
59923;DHT22;45778;51.142;3.732;2022-11-20T11:16:53;8.90;99.90
59923;DHT22;45778;51.142;3.732;2022-11-20T11:19:20;9.00;99.90
59923;DHT22;45778;51.142;3.732;2022-11-20T11:21:55;9.10;99.90
59923;DHT22;45778;51.142;3.732;2022-11-20T11:24:29;9.10;99.90
59923;DHT22;45778;51.142;3.732;2022-11-20T11:27:01;9.20;99.90
59923;DHT22;45778;51.142;3.732;2022-11-20T11:29:30;9.20;99.90
59923;DHT22;45778;51.142;3.732;2022-11-20T11:32:11;9.00;99.90
59923;DHT22;45778;51.142;3.732;2022-11-20T11:34:38;8.90;99.90
59923;DHT22;45778;51.142;3.732;2022-11-20T11:37:04;8.70;99.90
59923;DHT22;45778;51.142;3.732;2022-11-20T11:39:31;8.70;99.90
59923;DHT22;45778;51.142;3.732;2022-11-20T11:41:58;8.70;99.90
59923;DHT22;45778;51.142;3.732;2022-11-20T11:44:33;8.70;99.90
59923;DHT22;45778;51.142;3.732;2022-11-20T11:47:24;8.70;99.90
59923;DHT22;45778;51.142;3.732;2022-11-20T11:55:47;8.50;99.90
59923;DHT22;45778;51.142;3.732;2022-11-20T11:58:41;8.40;99.90
59923;DHT22;45778;51.142;3.732;2022-11-20T12:06:25;7.90;99.90
59923;DHT22;45778;51.142;3.732;2022-11-20T12:09:04;7.90;99.90
59923;DHT22;45778;51.142;3.732;2022-11-20T12:16:58;7.90;99.90
59923;DHT22;45778;51.142;3.732;2022-11-20T12:19:24;7.90;99.90
59923;DHT22;45778;51.142;3.732;2022-11-20T12:24:42;7.80;99.90
59923;DHT22;45778;51.142;3.732;2022-11-20T12:30:18;7.90;99.90
59923;DHT22;45778;51.142;3.732;2022-11-20T12:36:10;7.70;99.90
59923;DHT22;45778;51.142;3.732;2022-11-20T12:47:48;7.80;99.90
59923;DHT22;45778;51.142;3.732;2022-11-20T12:53:07;7.90;99.90
59923;DHT22;45778;51.142;3.732;2022-11-20T12:58:35;7.80;99.90
59923;DHT22;45778;51.142;3.732;2022-11-20T13:07:19;7.80;99.90
59923;DHT22;45778;51.142;3.732;2022-11-20T13:09:50;7.80;99.90
59923;DHT22;45778;51.142;3.732;2022-11-20T13:12:47;7.70;99.90
59923;DHT22;45778;51.142;3.732;2022-11-20T13:15:37;7.80;99.90
59923;DHT22;45778;51.142;3.732;2022-11-20T13:18:08;7.80;99.90
59923;DHT22;45778;51.142;3.732;2022-11-20T13:20:36;8.00;99.90
59923;DHT22;45778;51.142;3.732;2022-11-20T13:23:06;7.90;99.90
59923;DHT22;45778;51.142;3.732;2022-11-20T13:25:38;8.00;99.90
59923;DHT22;45778;51.142;3.732;2022-11-20T13:30:47;8.00;99.90
59923;DHT22;45778;51.142;3.732;2022-11-20T13:33:34;8.10;99.90
59923;DHT22;45778;51.142;3.732;2022-11-20T13:36:06;8.20;99.90
59923;DHT22;45778;51.142;3.732;2022-11-20T13:38:50;8.10;99.90
59923;DHT22;45778;51.142;3.732;2022-11-20T13:41:30;8.00;99.90
59923;DHT22;45778;51.142;3.732;2022-11-20T13:44:05;8.00;99.90
59923;DHT22;45778;51.142;3.732;2022-11-20T13:46:40;8.10;99.90
59923;DHT22;45778;51.142;3.732;2022-11-20T14:00:29;8.00;99.90
59923;DHT22;45778;51.142;3.732;2022-11-20T14:05:37;8.10;99.90
59923;DHT22;45778;51.142;3.732;2022-11-20T14:08:06;8.10;99.90
59923;DHT22;45778;51.142;3.732;2022-11-20T14:10:36;8.10;99.90
59923;DHT22;45778;51.142;3.732;2022-11-20T14:13:17;8.10;99.90
59923;DHT22;45778;51.142;3.732;2022-11-20T14:15:43;8.30;99.90
59923;DHT22;45778;51.142;3.732;2022-11-20T14:18:20;8.20;99.90
59923;DHT22;45778;51.142;3.732;2022-11-20T14:20:47;8.30;99.90
59923;DHT22;45778;51.142;3.732;2022-11-20T14:23:24;8.30;99.90
59923;DHT22;45778;51.142;3.732;2022-11-20T14:25:50;8.30;99.90
59923;DHT22;45778;51.142;3.732;2022-11-20T14:28:27;8.30;99.90
59923;DHT22;45778;51.142;3.732;2022-11-20T14:30:54;8.50;99.90
59923;DHT22;45778;51.142;3.732;2022-11-20T14:33:20;8.50;99.90
59923;DHT22;45778;51.142;3.732;2022-11-20T14:35:53;8.70;99.90
59923;DHT22;45778;51.142;3.732;2022-11-20T14:38:25;8.60;99.90
59923;DHT22;45778;51.142;3.732;2022-11-20T14:40:51;8.70;99.90
59923;DHT22;45778;51.142;3.732;2022-11-20T14:46:07;8.90;99.90
59923;DHT22;45778;51.142;3.732;2022-11-20T14:51:05;9.40;99.90
59923;DHT22;45778;51.142;3.732;2022-11-20T14:53:31;9.60;99.90
59923;DHT22;45778;51.142;3.732;2022-11-20T14:56:01;9.80;99.90
59923;DHT22;45778;51.142;3.732;2022-11-20T14:58:32;10.10;99.90
59923;DHT22;45778;51.142;3.732;2022-11-20T15:01:01;10.00;99.90
59923;DHT22;45778;51.142;3.732;2022-11-20T15:03:38;9.80;99.90
59923;DHT22;45778;51.142;3.732;2022-11-20T15:06:06;9.60;99.90
59923;DHT22;45778;51.142;3.732;2022-11-20T15:08:32;9.50;99.90
59923;DHT22;45778;51.142;3.732;2022-11-20T15:10:58;9.40;99.90
59923;DHT22;45778;51.142;3.732;2022-11-20T15:13:32;9.30;99.90
59923;DHT22;45778;51.142;3.732;2022-11-20T15:16:01;9.30;99.90
59923;DHT22;45778;51.142;3.732;2022-11-20T15:18:39;9.20;99.90
59923;DHT22;45778;51.142;3.732;2022-11-20T15:21:11;9.20;99.90
59923;DHT22;45778;51.142;3.732;2022-11-20T15:23:37;9.10;99.90
59923;DHT22;45778;51.142;3.732;2022-11-20T15:26:11;9.10;99.90
59923;DHT22;45778;51.142;3.732;2022-11-20T15:28:41;9.10;99.90
59923;DHT22;45778;51.142;3.732;2022-11-20T15:31:11;9.10;99.90
59923;DHT22;45778;51.142;3.732;2022-11-20T15:33:37;9.10;99.90
59923;DHT22;45778;51.142;3.732;2022-11-20T15:36:03;9.20;99.90
59923;DHT22;45778;51.142;3.732;2022-11-20T15:38:29;9.20;99.90
59923;DHT22;45778;51.142;3.732;2022-11-20T15:40:55;9.30;99.90
59923;DHT22;45778;51.142;3.732;2022-11-20T15:43:20;9.30;99.90
59923;DHT22;45778;51.142;3.732;2022-11-20T15:45:49;9.20;99.90
59923;DHT22;45778;51.142;3.732;2022-11-20T15:48:41;9.10;99.90
59923;DHT22;45778;51.142;3.732;2022-11-20T15:51:23;9.20;99.90
59923;DHT22;45778;51.142;3.732;2022-11-20T15:53:50;9.10;99.90
59923;DHT22;45778;51.142;3.732;2022-11-20T15:56:15;9.00;99.90
59923;DHT22;45778;51.142;3.732;2022-11-20T15:58:41;8.90;99.90
59923;DHT22;45778;51.142;3.732;2022-11-20T16:01:16;8.90;99.90
59923;DHT22;45778;51.142;3.732;2022-11-20T16:03:42;8.90;99.90
59923;DHT22;45778;51.142;3.732;2022-11-20T16:06:08;8.90;99.90
59923;DHT22;45778;51.142;3.732;2022-11-20T16:08:34;8.80;99.90
59923;DHT22;45778;51.142;3.732;2022-11-20T16:11:00;8.70;99.90
59923;DHT22;45778;51.142;3.732;2022-11-20T16:13:25;8.60;99.90
59923;DHT22;45778;51.142;3.732;2022-11-20T16:16:37;8.60;99.90
59923;DHT22;45778;51.142;3.732;2022-11-20T16:19:03;8.40;99.90
59923;DHT22;45778;51.142;3.732;2022-11-20T16:21:29;8.40;99.90
59923;DHT22;45778;51.142;3.732;2022-11-20T16:24:09;8.40;99.90
59923;DHT22;45778;51.142;3.732;2022-11-20T16:26:36;8.50;99.90
59923;DHT22;45778;51.142;3.732;2022-11-20T16:29:03;8.50;99.90
59923;DHT22;45778;51.142;3.732;2022-11-20T16:31:29;8.60;99.90
59923;DHT22;45778;51.142;3.732;2022-11-20T16:33:57;8.50;99.90
59923;DHT22;45778;51.142;3.732;2022-11-20T16:36:24;8.40;99.90
59923;DHT22;45778;51.142;3.732;2022-11-20T16:38:55;8.40;99.90
59923;DHT22;45778;51.142;3.732;2022-11-20T16:41:22;8.40;99.90
59923;DHT22;45778;51.142;3.732;2022-11-20T16:43:55;8.30;99.90
59923;DHT22;45778;51.142;3.732;2022-11-20T16:46:25;8.30;99.90
59923;DHT22;45778;51.142;3.732;2022-11-20T16:48:53;8.50;99.90
59923;DHT22;45778;51.142;3.732;2022-11-20T16:51:19;8.20;99.90
59923;DHT22;45778;51.142;3.732;2022-11-20T16:53:45;8.10;99.90
59923;DHT22;45778;51.142;3.732;2022-11-20T16:56:12;8.20;99.90
59923;DHT22;45778;51.142;3.732;2022-11-20T16:58:38;8.20;99.90
59923;DHT22;45778;51.142;3.732;2022-11-20T17:01:08;8.20;99.90
59923;DHT22;45778;51.142;3.732;2022-11-20T17:03:39;8.10;99.90
59923;DHT22;45778;51.142;3.732;2022-11-20T17:06:19;8.30;99.90
59923;DHT22;45778;51.142;3.732;2022-11-20T17:08:46;8.00;99.90
59923;DHT22;45778;51.142;3.732;2022-11-20T17:11:14;7.90;99.90
59923;DHT22;45778;51.142;3.732;2022-11-20T17:13:40;7.80;99.90
59923;DHT22;45778;51.142;3.732;2022-11-20T17:16:08;7.70;99.90
59923;DHT22;45778;51.142;3.732;2022-11-20T17:18:34;7.70;99.90
59923;DHT22;45778;51.142;3.732;2022-11-20T17:21:00;7.80;99.90
59923;DHT22;45778;51.142;3.732;2022-11-20T17:23:40;7.80;99.90
59923;DHT22;45778;51.142;3.732;2022-11-20T17:26:24;7.90;99.90
59923;DHT22;45778;51.142;3.732;2022-11-20T17:29:05;7.80;99.90
59923;DHT22;45778;51.142;3.732;2022-11-20T17:31:32;7.90;99.90
59923;DHT22;45778;51.142;3.732;2022-11-20T17:33:59;7.90;99.90
59923;DHT22;45778;51.142;3.732;2022-11-20T17:36:25;8.00;99.90
59923;DHT22;45778;51.142;3.732;2022-11-20T17:38:51;8.00;99.90
59923;DHT22;45778;51.142;3.732;2022-11-20T17:41:19;7.90;99.90